sensor_id;sensor_type;location;lat;lon;timestamp;pressure;altitude;pressure_sealevel;temperature;humidity
16595;BME280;8410;52.532;13.336;2023-12-07T00:00:18;101252.91;;;7.22;73.01
16595;BME280;8410;52.532;13.336;2023-12-07T00:02:46;101241.09;;;7.79;72.28
16595;BME280;8410;52.532;13.336;2023-12-07T00:05:15;101248.28;;;7.89;71.15
16595;BME280;8410;52.532;13.336;2023-12-07T00:07:42;101251.00;;;7.95;71.32
16595;BME280;8410;52.532;13.336;2023-12-07T00:10:10;101253.66;;;7.98;71.55
16595;BME280;8410;52.532;13.336;2023-12-07T00:12:37;101248.09;;;8.11;71.03
16595;BME280;8410;52.532;13.336;2023-12-07T00:15:06;101244.53;;;8.06;69.37
16595;BME280;8410;52.532;13.336;2023-12-07T00:17:34;101242.03;;;8.09;70.58
16595;BME280;8410;52.532;13.336;2023-12-07T00:20:01;101250.84;;;7.12;73.58
16595;BME280;8410;52.532;13.336;2023-12-07T00:22:31;101243.41;;;7.98;70.89
16595;BME280;8410;52.532;13.336;2023-12-07T00:24:59;101241.38;;;7.88;70.60
16595;BME280;8410;52.532;13.336;2023-12-07T00:27:26;101249.72;;;7.81;73.09
16595;BME280;8410;52.532;13.336;2023-12-07T00:29:54;101252.22;;;8.06;72.14
16595;BME280;8410;52.532;13.336;2023-12-07T00:32:21;101246.38;;;8.39;70.53
16595;BME280;8410;52.532;13.336;2023-12-07T00:34:49;101244.97;;;7.93;72.30
16595;BME280;8410;52.532;13.336;2023-12-07T00:37:18;101257.22;;;8.30;70.42
16595;BME280;8410;52.532;13.336;2023-12-07T00:39:47;101257.28;;;8.32;69.19
16595;BME280;8410;52.532;13.336;2023-12-07T00:42:14;101259.19;;;8.10;70.41
16595;BME280;8410;52.532;13.336;2023-12-07T00:44:42;101259.75;;;7.74;71.65
16595;BME280;8410;52.532;13.336;2023-12-07T00:47:10;101261.00;;;8.14;71.02
16595;BME280;8410;52.532;13.336;2023-12-07T00:49:37;101256.94;;;8.21;68.85
16595;BME280;8410;52.532;13.336;2023-12-07T00:52:07;101253.84;;;8.04;73.13
16595;BME280;8410;52.532;13.336;2023-12-07T00:54:34;101256.66;;;8.39;69.78
16595;BME280;8410;52.532;13.336;2023-12-07T00:57:03;101258.16;;;8.34;70.78
16595;BME280;8410;52.532;13.336;2023-12-07T00:59:31;101261.41;;;8.27;71.12
16595;BME280;8410;52.532;13.336;2023-12-07T01:02:00;101260.31;;;8.47;71.23
16595;BME280;8410;52.532;13.336;2023-12-07T01:04:28;101267.97;;;8.76;68.96
16595;BME280;8410;52.532;13.336;2023-12-07T01:06:56;101275.13;;;8.56;69.67
16595;BME280;8410;52.532;13.336;2023-12-07T01:09:24;101279.63;;;8.36;69.07
16595;BME280;8410;52.532;13.336;2023-12-07T01:11:52;101288.69;;;8.82;69.65
16595;BME280;8410;52.532;13.336;2023-12-07T01:14:21;101286.41;;;8.63;69.85
16595;BME280;8410;52.532;13.336;2023-12-07T01:16:48;101290.31;;;8.78;69.64
16595;BME280;8410;52.532;13.336;2023-12-07T01:19:16;101294.97;;;8.61;68.96
16595;BME280;8410;52.532;13.336;2023-12-07T01:21:43;101297.84;;;8.72;69.41
16595;BME280;8410;52.532;13.336;2023-12-07T01:24:11;101301.03;;;8.65;69.88
16595;BME280;8410;52.532;13.336;2023-12-07T01:26:42;101303.84;;;8.73;68.95
16595;BME280;8410;52.532;13.336;2023-12-07T01:29:09;101296.97;;;8.72;68.21
16595;BME280;8410;52.532;13.336;2023-12-07T01:31:38;101310.53;;;8.68;68.95
16595;BME280;8410;52.532;13.336;2023-12-07T01:34:06;101309.06;;;8.76;68.91
16595;BME280;8410;52.532;13.336;2023-12-07T01:36:34;101316.25;;;8.59;69.18
16595;BME280;8410;52.532;13.336;2023-12-07T01:39:01;101321.16;;;8.80;68.60
16595;BME280;8410;52.532;13.336;2023-12-07T01:41:29;101327.22;;;8.53;68.02
16595;BME280;8410;52.532;13.336;2023-12-07T01:43:57;101314.72;;;8.64;68.77
16595;BME280;8410;52.532;13.336;2023-12-07T01:46:24;101323.34;;;8.39;69.39
16595;BME280;8410;52.532;13.336;2023-12-07T01:48:54;101325.94;;;8.68;69.10
16595;BME280;8410;52.532;13.336;2023-12-07T01:51:21;101332.63;;;8.63;68.11
16595;BME280;8410;52.532;13.336;2023-12-07T01:53:49;101321.25;;;8.83;67.82
16595;BME280;8410;52.532;13.336;2023-12-07T01:56:18;101332.69;;;7.84;70.52
16595;BME280;8410;52.532;13.336;2023-12-07T01:58:46;101327.94;;;7.69;71.42
16595;BME280;8410;52.532;13.336;2023-12-07T02:01:14;101336.09;;;7.58;72.53
16595;BME280;8410;52.532;13.336;2023-12-07T02:03:41;101330.06;;;7.32;72.61
16595;BME280;8410;52.532;13.336;2023-12-07T02:06:10;101339.09;;;7.46;71.61
16595;BME280;8410;52.532;13.336;2023-12-07T02:08:39;101342.13;;;7.60;71.92
16595;BME280;8410;52.532;13.336;2023-12-07T02:11:08;101337.25;;;7.42;72.80
16595;BME280;8410;52.532;13.336;2023-12-07T02:13:36;101345.06;;;6.74;72.26
16595;BME280;8410;52.532;13.336;2023-12-07T02:16:07;101343.13;;;7.15;71.65
16595;BME280;8410;52.532;13.336;2023-12-07T02:18:40;101337.41;;;7.22;72.31
16595;BME280;8410;52.532;13.336;2023-12-07T02:21:16;101341.13;;;7.56;71.83
16595;BME280;8410;52.532;13.336;2023-12-07T02:23:46;101320.47;;;7.76;70.37
16595;BME280;8410;52.532;13.336;2023-12-07T02:26:18;101331.09;;;7.88;72.11
16595;BME280;8410;52.532;13.336;2023-12-07T02:28:48;101331.50;;;7.74;71.36
16595;BME280;8410;52.532;13.336;2023-12-07T02:31:16;101337.50;;;7.75;71.58
16595;BME280;8410;52.532;13.336;2023-12-07T02:33:43;101341.22;;;7.34;70.51
16595;BME280;8410;52.532;13.336;2023-12-07T02:36:13;101346.28;;;7.82;71.20
16595;BME280;8410;52.532;13.336;2023-12-07T02:38:44;101342.97;;;8.11;70.39
16595;BME280;8410;52.532;13.336;2023-12-07T02:41:12;101341.94;;;8.32;69.43
16595;BME280;8410;52.532;13.336;2023-12-07T02:43:39;101344.72;;;8.12;69.83
16595;BME280;8410;52.532;13.336;2023-12-07T02:46:08;101344.59;;;8.35;70.40
16595;BME280;8410;52.532;13.336;2023-12-07T02:48:36;101344.34;;;8.54;69.90
16595;BME280;8410;52.532;13.336;2023-12-07T02:51:04;101350.63;;;8.37;69.24
16595;BME280;8410;52.532;13.336;2023-12-07T02:53:31;101354.25;;;7.91;69.57
16595;BME280;8410;52.532;13.336;2023-12-07T02:55:59;101364.63;;;7.68;69.55
16595;BME280;8410;52.532;13.336;2023-12-07T02:58:26;101361.31;;;6.54;73.37
16595;BME280;8410;52.532;13.336;2023-12-07T03:00:54;101355.31;;;7.70;72.81
16595;BME280;8410;52.532;13.336;2023-12-07T03:03:23;101365.75;;;7.77;72.33
16595;BME280;8410;52.532;13.336;2023-12-07T03:05:50;101370.16;;;7.55;71.39
16595;BME280;8410;52.532;13.336;2023-12-07T03:08:18;101376.63;;;7.69;71.69
16595;BME280;8410;52.532;13.336;2023-12-07T03:10:45;101367.69;;;7.58;70.39
16595;BME280;8410;52.532;13.336;2023-12-07T03:13:13;101371.75;;;7.77;72.06
16595;BME280;8410;52.532;13.336;2023-12-07T03:15:41;101372.13;;;8.13;71.65
16595;BME280;8410;52.532;13.336;2023-12-07T03:18:08;101373.66;;;8.08;70.44
16595;BME280;8410;52.532;13.336;2023-12-07T03:20:37;101375.28;;;8.06;70.19
16595;BME280;8410;52.532;13.336;2023-12-07T03:23:05;101376.31;;;8.11;69.96
16595;BME280;8410;52.532;13.336;2023-12-07T03:25:32;101385.03;;;7.91;69.99
16595;BME280;8410;52.532;13.336;2023-12-07T03:28:00;101380.03;;;7.94;70.99
16595;BME280;8410;52.532;13.336;2023-12-07T03:30:28;101383.91;;;8.08;69.91
16595;BME280;8410;52.532;13.336;2023-12-07T03:32:55;101384.69;;;8.33;70.22
16595;BME280;8410;52.532;13.336;2023-12-07T03:35:23;101382.28;;;8.10;69.74
16595;BME280;8410;52.532;13.336;2023-12-07T03:37:52;101388.47;;;8.43;69.95
16595;BME280;8410;52.532;13.336;2023-12-07T03:40:19;101391.28;;;8.25;70.31
16595;BME280;8410;52.532;13.336;2023-12-07T03:42:47;101388.44;;;8.15;70.38
16595;BME280;8410;52.532;13.336;2023-12-07T03:45:22;101395.91;;;8.09;69.41
16595;BME280;8410;52.532;13.336;2023-12-07T03:47:50;101390.00;;;8.12;69.87
16595;BME280;8410;52.532;13.336;2023-12-07T03:50:17;101401.97;;;8.38;69.80
16595;BME280;8410;52.532;13.336;2023-12-07T03:52:45;101401.94;;;8.37;70.50
16595;BME280;8410;52.532;13.336;2023-12-07T03:55:14;101397.03;;;8.43;69.70
16595;BME280;8410;52.532;13.336;2023-12-07T03:57:42;101394.19;;;8.10;69.99
16595;BME280;8410;52.532;13.336;2023-12-07T04:00:11;101389.13;;;8.64;69.38
16595;BME280;8410;52.532;13.336;2023-12-07T04:02:39;101383.31;;;8.70;68.39
16595;BME280;8410;52.532;13.336;2023-12-07T04:05:06;101385.75;;;8.65;68.88
16595;BME280;8410;52.532;13.336;2023-12-07T04:07:35;101388.19;;;8.35;69.18
16595;BME280;8410;52.532;13.336;2023-12-07T04:10:03;101392.41;;;8.33;68.42
16595;BME280;8410;52.532;13.336;2023-12-07T04:12:33;101390.25;;;8.20;69.25
16595;BME280;8410;52.532;13.336;2023-12-07T04:15:00;101393.66;;;7.93;70.68
16595;BME280;8410;52.532;13.336;2023-12-07T04:17:28;101395.19;;;7.88;71.04
16595;BME280;8410;52.532;13.336;2023-12-07T04:19:56;101403.25;;;7.99;70.97
16595;BME280;8410;52.532;13.336;2023-12-07T04:22:24;101404.09;;;7.99;71.28
16595;BME280;8410;52.532;13.336;2023-12-07T04:24:52;101401.97;;;7.86;71.03
16595;BME280;8410;52.532;13.336;2023-12-07T04:27:19;101402.63;;;8.06;70.43
16595;BME280;8410;52.532;13.336;2023-12-07T04:29:48;101413.22;;;7.91;70.40
16595;BME280;8410;52.532;13.336;2023-12-07T04:32:16;101420.56;;;7.56;72.81
16595;BME280;8410;52.532;13.336;2023-12-07T04:34:43;101421.28;;;8.02;70.92
16595;BME280;8410;52.532;13.336;2023-12-07T04:37:11;101429.75;;;7.99;70.99
16595;BME280;8410;52.532;13.336;2023-12-07T04:39:38;101425.75;;;7.82;70.43
16595;BME280;8410;52.532;13.336;2023-12-07T04:42:06;101428.00;;;7.98;70.46
16595;BME280;8410;52.532;13.336;2023-12-07T04:44:33;101440.81;;;7.72;72.25
16595;BME280;8410;52.532;13.336;2023-12-07T04:47:03;101434.59;;;7.66;71.61
16595;BME280;8410;52.532;13.336;2023-12-07T04:49:30;101442.44;;;7.70;71.36
16595;BME280;8410;52.532;13.336;2023-12-07T04:51:58;101444.53;;;7.81;71.37
16595;BME280;8410;52.532;13.336;2023-12-07T04:54:25;101435.44;;;7.66;72.41
16595;BME280;8410;52.532;13.336;2023-12-07T04:56:53;101440.81;;;7.72;71.84
16595;BME280;8410;52.532;13.336;2023-12-07T04:59:21;101437.88;;;7.86;71.01
16595;BME280;8410;52.532;13.336;2023-12-07T05:01:48;101439.91;;;7.96;71.06
16595;BME280;8410;52.532;13.336;2023-12-07T05:04:18;101435.53;;;7.93;70.55
16595;BME280;8410;52.532;13.336;2023-12-07T05:06:45;101441.81;;;7.78;70.82
16595;BME280;8410;52.532;13.336;2023-12-07T05:09:13;101439.63;;;7.88;71.30
16595;BME280;8410;52.532;13.336;2023-12-07T05:11:41;101449.28;;;7.95;71.76
16595;BME280;8410;52.532;13.336;2023-12-07T05:14:11;101441.91;;;7.55;71.18
16595;BME280;8410;52.532;13.336;2023-12-07T05:16:38;101441.34;;;7.40;72.18
16595;BME280;8410;52.532;13.336;2023-12-07T05:19:06;101444.81;;;7.42;71.93
16595;BME280;8410;52.532;13.336;2023-12-07T05:21:37;101448.44;;;7.47;73.53
16595;BME280;8410;52.532;13.336;2023-12-07T05:24:05;101448.66;;;7.53;71.89
16595;BME280;8410;52.532;13.336;2023-12-07T05:26:33;101450.28;;;7.75;71.75
16595;BME280;8410;52.532;13.336;2023-12-07T05:29:00;101446.03;;;7.76;72.35
16595;BME280;8410;52.532;13.336;2023-12-07T05:31:28;101456.44;;;7.56;72.22
16595;BME280;8410;52.532;13.336;2023-12-07T05:33:55;101457.38;;;7.58;72.73
16595;BME280;8410;52.532;13.336;2023-12-07T05:36:23;101449.75;;;7.60;72.80
16595;BME280;8410;52.532;13.336;2023-12-07T05:38:52;101451.97;;;7.74;72.41
16595;BME280;8410;52.532;13.336;2023-12-07T05:41:20;101453.66;;;7.74;70.62
16595;BME280;8410;52.532;13.336;2023-12-07T05:43:47;101441.22;;;7.85;71.42
16595;BME280;8410;52.532;13.336;2023-12-07T05:46:15;101453.25;;;7.62;72.37
16595;BME280;8410;52.532;13.336;2023-12-07T05:48:43;101454.13;;;7.86;71.83
16595;BME280;8410;52.532;13.336;2023-12-07T05:51:13;101451.59;;;7.88;70.40
16595;BME280;8410;52.532;13.336;2023-12-07T05:53:41;101447.28;;;7.87;71.19
16595;BME280;8410;52.532;13.336;2023-12-07T05:56:10;101446.81;;;7.73;71.08
16595;BME280;8410;52.532;13.336;2023-12-07T05:58:38;101452.69;;;7.46;71.62
16595;BME280;8410;52.532;13.336;2023-12-07T06:01:06;101457.06;;;7.49;72.95
16595;BME280;8410;52.532;13.336;2023-12-07T06:03:34;101452.47;;;7.64;72.39
16595;BME280;8410;52.532;13.336;2023-12-07T06:06:02;101463.63;;;7.66;72.24
16595;BME280;8410;52.532;13.336;2023-12-07T06:08:30;101464.38;;;7.62;72.74
16595;BME280;8410;52.532;13.336;2023-12-07T06:10:58;101464.13;;;7.56;71.63
16595;BME280;8410;52.532;13.336;2023-12-07T06:13:26;101477.44;;;7.46;72.89
16595;BME280;8410;52.532;13.336;2023-12-07T06:15:54;101476.69;;;7.72;71.14
16595;BME280;8410;52.532;13.336;2023-12-07T06:18:22;101476.81;;;7.76;72.51
16595;BME280;8410;52.532;13.336;2023-12-07T06:20:49;101478.69;;;7.57;72.21
16595;BME280;8410;52.532;13.336;2023-12-07T06:23:17;101476.97;;;7.34;73.05
16595;BME280;8410;52.532;13.336;2023-12-07T06:25:44;101478.22;;;7.67;72.11
16595;BME280;8410;52.532;13.336;2023-12-07T06:28:12;101486.44;;;7.59;72.22
16595;BME280;8410;52.532;13.336;2023-12-07T06:30:40;101489.75;;;7.56;73.19
16595;BME280;8410;52.532;13.336;2023-12-07T06:33:08;101490.34;;;7.49;72.60
16595;BME280;8410;52.532;13.336;2023-12-07T06:35:36;101497.56;;;7.37;73.32
16595;BME280;8410;52.532;13.336;2023-12-07T06:38:03;101504.16;;;7.53;71.57
16595;BME280;8410;52.532;13.336;2023-12-07T06:40:31;101507.13;;;7.41;72.62
16595;BME280;8410;52.532;13.336;2023-12-07T06:42:59;101510.25;;;7.56;71.99
16595;BME280;8410;52.532;13.336;2023-12-07T06:45:26;101513.38;;;7.71;71.66
16595;BME280;8410;52.532;13.336;2023-12-07T06:47:55;101513.72;;;7.81;70.48
16595;BME280;8410;52.532;13.336;2023-12-07T06:50:23;101514.31;;;7.98;71.17
16595;BME280;8410;52.532;13.336;2023-12-07T06:52:50;101517.56;;;7.69;72.26
16595;BME280;8410;52.532;13.336;2023-12-07T06:55:18;101513.16;;;7.65;71.28
16595;BME280;8410;52.532;13.336;2023-12-07T06:57:46;101510.81;;;7.71;71.52
16595;BME280;8410;52.532;13.336;2023-12-07T07:00:14;101512.13;;;7.84;71.93
16595;BME280;8410;52.532;13.336;2023-12-07T07:02:41;101511.84;;;7.77;70.74
16595;BME280;8410;52.532;13.336;2023-12-07T07:05:10;101515.38;;;7.80;71.82
16595;BME280;8410;52.532;13.336;2023-12-07T07:07:38;101517.06;;;7.56;71.35
16595;BME280;8410;52.532;13.336;2023-12-07T07:10:06;101515.50;;;7.59;72.61
16595;BME280;8410;52.532;13.336;2023-12-07T07:12:36;101518.28;;;7.65;71.88
16595;BME280;8410;52.532;13.336;2023-12-07T07:15:04;101527.03;;;7.70;71.81
16595;BME280;8410;52.532;13.336;2023-12-07T07:17:33;101529.09;;;7.81;71.35
16595;BME280;8410;52.532;13.336;2023-12-07T07:20:01;101525.16;;;7.90;70.59
16595;BME280;8410;52.532;13.336;2023-12-07T07:22:28;101524.00;;;7.58;71.22
16595;BME280;8410;52.532;13.336;2023-12-07T07:24:56;101529.09;;;7.81;71.87
16595;BME280;8410;52.532;13.336;2023-12-07T07:27:24;101525.34;;;7.95;70.48
16595;BME280;8410;52.532;13.336;2023-12-07T07:29:51;101522.19;;;8.02;69.50
16595;BME280;8410;52.532;13.336;2023-12-07T07:32:19;101530.94;;;7.85;70.32
16595;BME280;8410;52.532;13.336;2023-12-07T07:34:47;101525.03;;;7.86;70.83
16595;BME280;8410;52.532;13.336;2023-12-07T07:37:14;101523.16;;;8.06;70.07
16595;BME280;8410;52.532;13.336;2023-12-07T07:39:43;101526.56;;;8.05;70.34
16595;BME280;8410;52.532;13.336;2023-12-07T07:42:11;101528.78;;;7.95;70.23
16595;BME280;8410;52.532;13.336;2023-12-07T07:44:38;101539.19;;;8.00;70.56
16595;BME280;8410;52.532;13.336;2023-12-07T07:47:06;101536.63;;;8.00;71.11
16595;BME280;8410;52.532;13.336;2023-12-07T07:49:34;101531.44;;;7.99;71.04
16595;BME280;8410;52.532;13.336;2023-12-07T07:52:02;101536.06;;;7.85;70.36
16595;BME280;8410;52.532;13.336;2023-12-07T07:54:31;101531.13;;;7.67;71.53
16595;BME280;8410;52.532;13.336;2023-12-07T07:57:00;101529.91;;;7.80;70.98
16595;BME280;8410;52.532;13.336;2023-12-07T07:59:27;101530.47;;;7.95;74.21
16595;BME280;8410;52.532;13.336;2023-12-07T08:01:55;101531.28;;;8.18;79.47
16595;BME280;8410;52.532;13.336;2023-12-07T08:04:22;101531.81;;;7.39;73.29
16595;BME280;8410;52.532;13.336;2023-12-07T08:06:50;101544.81;;;6.79;75.85
16595;BME280;8410;52.532;13.336;2023-12-07T08:09:17;101532.84;;;7.66;76.51
16595;BME280;8410;52.532;13.336;2023-12-07T08:11:45;101523.66;;;7.49;72.74
16595;BME280;8410;52.532;13.336;2023-12-07T08:14:13;101546.84;;;6.46;76.41
16595;BME280;8410;52.532;13.336;2023-12-07T08:16:42;101547.69;;;6.06;78.05
16595;BME280;8410;52.532;13.336;2023-12-07T08:19:10;101546.97;;;7.79;79.38
16595;BME280;8410;52.532;13.336;2023-12-07T08:21:38;101549.31;;;8.69;70.25
16595;BME280;8410;52.532;13.336;2023-12-07T08:24:05;101546.72;;;8.69;69.43
16595;BME280;8410;52.532;13.336;2023-12-07T08:26:33;101556.16;;;8.70;68.70
16595;BME280;8410;52.532;13.336;2023-12-07T08:29:00;101559.22;;;8.58;68.74
16595;BME280;8410;52.532;13.336;2023-12-07T08:31:29;101559.25;;;8.60;69.55
16595;BME280;8410;52.532;13.336;2023-12-07T08:33:57;101559.34;;;8.13;70.50
16595;BME280;8410;52.532;13.336;2023-12-07T08:36:24;101564.47;;;8.13;70.03
16595;BME280;8410;52.532;13.336;2023-12-07T08:38:52;101557.16;;;8.48;69.79
16595;BME280;8410;52.532;13.336;2023-12-07T08:41:19;101557.50;;;8.35;70.41
16595;BME280;8410;52.532;13.336;2023-12-07T08:43:47;101562.28;;;8.00;70.07
16595;BME280;8410;52.532;13.336;2023-12-07T08:46:15;101561.53;;;7.80;70.94
16595;BME280;8410;52.532;13.336;2023-12-07T08:48:44;101573.63;;;7.60;70.63
16595;BME280;8410;52.532;13.336;2023-12-07T08:51:12;101565.78;;;7.80;70.82
16595;BME280;8410;52.532;13.336;2023-12-07T08:53:40;101576.03;;;7.80;70.47
16595;BME280;8410;52.532;13.336;2023-12-07T08:56:07;101569.41;;;7.85;71.98
16595;BME280;8410;52.532;13.336;2023-12-07T08:58:35;101571.03;;;7.83;72.02
16595;BME280;8410;52.532;13.336;2023-12-07T09:01:03;101575.06;;;7.76;72.83
16595;BME280;8410;52.532;13.336;2023-12-07T09:03:35;101573.09;;;7.69;71.14
16595;BME280;8410;52.532;13.336;2023-12-07T09:06:05;101573.94;;;7.69;71.83
16595;BME280;8410;52.532;13.336;2023-12-07T09:08:33;101575.47;;;7.87;71.29
16595;BME280;8410;52.532;13.336;2023-12-07T09:11:01;101573.22;;;7.96;71.09
16595;BME280;8410;52.532;13.336;2023-12-07T09:13:30;101568.72;;;7.89;70.84
16595;BME280;8410;52.532;13.336;2023-12-07T09:15:57;101575.41;;;8.09;70.94
16595;BME280;8410;52.532;13.336;2023-12-07T09:18:25;101575.09;;;8.00;70.37
16595;BME280;8410;52.532;13.336;2023-12-07T09:20:52;101579.78;;;8.12;71.61
16595;BME280;8410;52.532;13.336;2023-12-07T09:23:21;101585.25;;;8.21;71.04
16595;BME280;8410;52.532;13.336;2023-12-07T09:25:49;101581.84;;;7.98;69.84
16595;BME280;8410;52.532;13.336;2023-12-07T09:28:16;101592.50;;;7.62;73.27
16595;BME280;8410;52.532;13.336;2023-12-07T09:30:44;101582.94;;;7.81;72.57
16595;BME280;8410;52.532;13.336;2023-12-07T09:33:12;101581.25;;;8.05;71.89
16595;BME280;8410;52.532;13.336;2023-12-07T09:35:39;101588.03;;;8.27;70.34
16595;BME280;8410;52.532;13.336;2023-12-07T09:38:07;101583.06;;;8.08;71.57
16595;BME280;8410;52.532;13.336;2023-12-07T09:40:37;101580.03;;;7.95;70.76
16595;BME280;8410;52.532;13.336;2023-12-07T09:43:04;101592.78;;;8.16;70.39
16595;BME280;8410;52.532;13.336;2023-12-07T09:45:32;101601.72;;;8.04;70.46
16595;BME280;8410;52.532;13.336;2023-12-07T09:48:01;101605.00;;;8.00;70.64
16595;BME280;8410;52.532;13.336;2023-12-07T09:50:29;101594.38;;;8.37;70.19
16595;BME280;8410;52.532;13.336;2023-12-07T09:52:58;101593.94;;;8.49;69.33
16595;BME280;8410;52.532;13.336;2023-12-07T09:55:34;101607.53;;;7.76;69.92
16595;BME280;8410;52.532;13.336;2023-12-07T09:58:05;101605.66;;;7.94;71.93
16595;BME280;8410;52.532;13.336;2023-12-07T10:00:35;101606.28;;;8.36;69.38
16595;BME280;8410;52.532;13.336;2023-12-07T10:03:02;101603.69;;;8.35;70.76
16595;BME280;8410;52.532;13.336;2023-12-07T10:05:34;101602.00;;;8.35;69.38
16595;BME280;8410;52.532;13.336;2023-12-07T10:08:02;101589.53;;;8.45;69.86
16595;BME280;8410;52.532;13.336;2023-12-07T10:10:30;101600.97;;;8.54;70.06
16595;BME280;8410;52.532;13.336;2023-12-07T10:12:59;101599.00;;;8.47;70.62
16595;BME280;8410;52.532;13.336;2023-12-07T10:15:28;101591.53;;;8.53;70.03
16595;BME280;8410;52.532;13.336;2023-12-07T10:17:58;101585.94;;;8.65;69.38
16595;BME280;8410;52.532;13.336;2023-12-07T10:20:27;101574.91;;;8.68;68.66
16595;BME280;8410;52.532;13.336;2023-12-07T10:23:03;101582.91;;;8.51;68.81
16595;BME280;8410;52.532;13.336;2023-12-07T10:25:31;101570.50;;;8.64;69.52
16595;BME280;8410;52.532;13.336;2023-12-07T10:28:00;101587.19;;;8.04;70.13
16595;BME280;8410;52.532;13.336;2023-12-07T10:30:35;101585.47;;;8.03;69.72
16595;BME280;8410;52.532;13.336;2023-12-07T10:33:05;101589.63;;;8.24;71.86
16595;BME280;8410;52.532;13.336;2023-12-07T10:35:38;101588.97;;;8.53;70.00
16595;BME280;8410;52.532;13.336;2023-12-07T10:38:05;101587.41;;;8.82;68.47
16595;BME280;8410;52.532;13.336;2023-12-07T10:40:33;101583.56;;;8.71;68.82
16595;BME280;8410;52.532;13.336;2023-12-07T10:43:04;101578.09;;;8.86;69.28
16595;BME280;8410;52.532;13.336;2023-12-07T10:45:33;101584.53;;;9.00;68.22
16595;BME280;8410;52.532;13.336;2023-12-07T10:48:03;101581.84;;;8.70;68.89
16595;BME280;8410;52.532;13.336;2023-12-07T10:50:35;101583.97;;;8.34;69.31
16595;BME280;8410;52.532;13.336;2023-12-07T10:53:08;101592.56;;;8.34;69.53
16595;BME280;8410;52.532;13.336;2023-12-07T10:55:41;101586.50;;;8.56;69.43
16595;BME280;8410;52.532;13.336;2023-12-07T10:58:11;101582.31;;;8.58;69.19
16595;BME280;8410;52.532;13.336;2023-12-07T11:00:41;101574.31;;;8.75;69.73
16595;BME280;8410;52.532;13.336;2023-12-07T11:03:15;101578.25;;;8.65;68.91
16595;BME280;8410;52.532;13.336;2023-12-07T11:05:45;101576.09;;;8.77;69.11
16595;BME280;8410;52.532;13.336;2023-12-07T11:08:18;101577.56;;;8.71;70.28
16595;BME280;8410;52.532;13.336;2023-12-07T11:10:52;101576.41;;;8.61;69.11
16595;BME280;8410;52.532;13.336;2023-12-07T11:13:26;101572.56;;;8.26;70.80
16595;BME280;8410;52.532;13.336;2023-12-07T11:15:54;101576.03;;;8.26;69.51
16595;BME280;8410;52.532;13.336;2023-12-07T11:18:25;101569.78;;;8.20;70.35
16595;BME280;8410;52.532;13.336;2023-12-07T11:20:55;101574.72;;;8.13;70.98
16595;BME280;8410;52.532;13.336;2023-12-07T11:23:22;101560.38;;;8.18;70.26
16595;BME280;8410;52.532;13.336;2023-12-07T11:25:52;101552.66;;;8.68;69.47
16595;BME280;8410;52.532;13.336;2023-12-07T11:28:34;101555.31;;;8.70;70.01
16595;BME280;8410;52.532;13.336;2023-12-07T11:31:02;101553.84;;;8.78;69.96
16595;BME280;8410;52.532;13.336;2023-12-07T11:33:31;101563.53;;;8.87;67.84
16595;BME280;8410;52.532;13.336;2023-12-07T11:36:06;101559.69;;;8.99;68.48
16595;BME280;8410;52.532;13.336;2023-12-07T11:38:36;101552.91;;;9.01;68.47
16595;BME280;8410;52.532;13.336;2023-12-07T11:41:04;101555.09;;;8.64;69.09
16595;BME280;8410;52.532;13.336;2023-12-07T11:43:41;101560.03;;;8.83;69.99
16595;BME280;8410;52.532;13.336;2023-12-07T11:46:12;101563.72;;;8.66;69.03
16595;BME280;8410;52.532;13.336;2023-12-07T11:48:47;101557.13;;;8.74;68.78
16595;BME280;8410;52.532;13.336;2023-12-07T11:51:16;101565.09;;;8.81;69.41
16595;BME280;8410;52.532;13.336;2023-12-07T11:53:44;101559.06;;;8.79;68.66
16595;BME280;8410;52.532;13.336;2023-12-07T11:56:11;101559.31;;;8.37;69.37
16595;BME280;8410;52.532;13.336;2023-12-07T11:58:39;101556.59;;;8.57;69.21
16595;BME280;8410;52.532;13.336;2023-12-07T12:01:07;101561.81;;;8.60;69.73
16595;BME280;8410;52.532;13.336;2023-12-07T12:03:36;101552.94;;;8.50;70.14
16595;BME280;8410;52.532;13.336;2023-12-07T12:06:06;101550.94;;;8.67;70.79
16595;BME280;8410;52.532;13.336;2023-12-07T12:08:38;101551.03;;;8.70;70.63
16595;BME280;8410;52.532;13.336;2023-12-07T12:11:05;101552.13;;;8.77;69.11
16595;BME280;8410;52.532;13.336;2023-12-07T12:13:35;101557.72;;;8.92;70.10
16595;BME280;8410;52.532;13.336;2023-12-07T12:16:04;101553.78;;;9.02;69.48
16595;BME280;8410;52.532;13.336;2023-12-07T12:18:33;101547.00;;;8.77;69.18
16595;BME280;8410;52.532;13.336;2023-12-07T12:21:02;101550.34;;;8.76;70.69
16595;BME280;8410;52.532;13.336;2023-12-07T12:23:31;101554.69;;;8.77;69.56
16595;BME280;8410;52.532;13.336;2023-12-07T12:25:59;101548.09;;;8.85;69.80
16595;BME280;8410;52.532;13.336;2023-12-07T12:28:27;101545.56;;;8.87;69.51
16595;BME280;8410;52.532;13.336;2023-12-07T12:30:55;101555.41;;;8.73;69.38
16595;BME280;8410;52.532;13.336;2023-12-07T12:33:22;101560.53;;;8.73;70.56
16595;BME280;8410;52.532;13.336;2023-12-07T12:36:01;101558.75;;;8.97;69.63
16595;BME280;8410;52.532;13.336;2023-12-07T12:38:29;101562.06;;;8.68;70.10
16595;BME280;8410;52.532;13.336;2023-12-07T12:41:09;101559.41;;;8.65;70.04
16595;BME280;8410;52.532;13.336;2023-12-07T12:43:38;101557.03;;;8.71;70.05
16595;BME280;8410;52.532;13.336;2023-12-07T12:46:05;101552.50;;;8.89;69.19
16595;BME280;8410;52.532;13.336;2023-12-07T12:48:33;101551.53;;;8.86;70.02
16595;BME280;8410;52.532;13.336;2023-12-07T12:51:07;101549.91;;;8.88;69.82
16595;BME280;8410;52.532;13.336;2023-12-07T12:53:35;101546.75;;;8.71;70.08
16595;BME280;8410;52.532;13.336;2023-12-07T12:56:04;101549.94;;;8.89;69.21
16595;BME280;8410;52.532;13.336;2023-12-07T12:58:33;101550.25;;;8.73;69.45
16595;BME280;8410;52.532;13.336;2023-12-07T13:01:01;101550.78;;;8.88;70.13
16595;BME280;8410;52.532;13.336;2023-12-07T13:03:30;101538.44;;;8.78;69.15
16595;BME280;8410;52.532;13.336;2023-12-07T13:05:58;101547.38;;;8.89;69.46